ENBR/BGO METAR and TAF weather

Enter ICAO airport designator
Station Type Date Time Source
ENBR METAR 2019/02/23 22:50 UTC NOAA

ENBR 232250Z 18017KT 9000 FEW010 BKN015 08/05 Q1029 RMK WIND 1200FT 16022KT


Station Type Date Time Source
ENBR Decoded METAR 2019/02/23 22:50 UTC NOAA

Bergen / Flesland, Norway (ENBR) 60-17N 005-14E 50M
Feb 23, 2019 - 05:50 PM EST / 2019.02.23 2250 UTC
Wind: from the S (180 degrees) at 20 MPH (17 KT):0
Visibility: 5 mile(s):0
Sky conditions: mostly cloudy
Temperature: 46 F (8 C)
Dew Point: 41 F (5 C)
Relative Humidity: 81%
Pressure (altimeter): 30.39 in. Hg (1029 hPa)
ob: ENBR 232250Z 18017KT 9000 FEW010 BKN015 08/05 Q1029 RMK WIND 1200FT 16022KT
cycle: 23

Station Type Date Time Source
ENBR TAF 2019/02/23 18:57 UTC NOAA

TAF ENBR 231700Z 2318/2418 17015KT 9999 FEW012 BKN030
TEMPO 2318/2321 17018G28KT PROB30
TEMPO 2318/2322 BKN010
BECMG 2322/2324 4000 RA BR BKN008
TEMPO 2400/2406 2000 DZ BR OVC004
BECMG 2406/2409 VRB06KT 9999 FEW010 SCT020


Example: see airport list